메인 페이지
METAR-TAF:

METAR-TAF

공항 :

Mount Washington Regional Airport

Whitefield, 뉴햄프셔, 미국

위도: 44-21-58N, 경도: 071-33-09W, 고도: 327m

현재 날씨관측

예보는 46분 전, 17:52시(UTC)에 발표되었습니다.
무풍
온도 13°C
습도 44%
기압 1015 hPa
시정: 16.1km
고도 5000ft 상공 구름 많음

METAR: KHIE 041752Z AUTO 00000KT 10SM BKN050 13/01 A2996 RMK AO2 SLP150 T01330006 10133 20044 58019

시각: 14:38 (18:38 UTC)

예보

예보는 1 시간 18분 전, 17:20시(UTC)에 발표되었습니다.
예보 대상 시간: 04일 18시부터 05일 18시까지 (UTC)
북서4kt
시정: 10km
고도 5000ft 상공 구름 많음
05일 0300시부터 (UTC)
kt
시정: 10km
고도 3000ft 상공 구름 많음

TAF: KHIE 041720Z 0418/0518 31004KT P6SM BKN050 FM050300 00000KT P6SM BKN030

4,000개 이상의 공항 관측 자료 및 예보 (METAR 및 TAF 보고).

지도상에서 검색 가능한 기상관측소가 노란 점과 빨간 점으로 표시되어 있습니다.

기상관측소 명을 보려면 표시 위로 마우스를 이동하세요.

날씨 관측과 예보를 보려면 클릭하세요.

지도 변경 : 확대하려면 엑스 표시가 있는 녹색 버튼, 축소하려면 빼기 표시가 있는 녹색 버튼, 다음 페이지의 지도를 보려면 녹색 화살표를 클릭하세요.


METAR-TAF: